Time;durP1;ratioP1;P1;durP2;ratioP2;P2;SDS_P1;SDS_P2;PMS_P1;PMS_P2;Temp;Humidity;BMP_temperature;BMP_pressure;BME280_temperature;BME280_humidity;BME280_pressure;Samples;Min_cycle;Max_cycle;Signal;HPM_P1;HPM_P2
2022/01/21 00:00:14;;;;;;;;;6.50;6.50;;;;;10.71;59.88;103300.03;5083298;27;62718;-75
2022/01/21 00:02:39;;;;;;;;;6.50;6.25;;;;;10.64;59.52;103301.19;5082586;28;62002;-76
2022/01/21 00:05:06;;;;;;;;;6.75;5.75;;;;;10.63;59.99;103306.31;5083314;27;62187;-75
2022/01/21 00:07:32;;;;;;;;;8.50;6.50;;;;;10.62;59.52;103307.09;5082711;28;62232;-76
2022/01/21 00:09:57;;;;;;;;;7.00;4.50;;;;;10.59;59.81;103305.13;5082460;27;62621;-76
2022/01/21 00:12:23;;;;;;;;;6.25;6.25;;;;;10.46;60.19;103301.34;5083819;28;61726;-75
2022/01/21 00:14:49;;;;;;;;;5.00;5.00;;;;;10.48;60.17;103297.16;5082446;28;61756;-75
2022/01/21 00:17:17;;;;;;;;;10.50;6.50;;;;;10.48;60.13;103303.31;5083937;27;61702;-76
2022/01/21 00:19:45;;;;;;;;;6.00;1.00;;;;;10.56;60.32;103302.25;5082695;27;62656;-76
2022/01/21 00:30:25;;;;;;;;;9.00;7.00;;;;;10.56;60.17;103289.13;5083078;28;61796;-75
2022/01/21 00:32:51;;;;;;;;;6.00;6.00;;;;;10.56;60.08;103297.00;5099413;27;61982;-75
2022/01/21 00:35:18;;;;;;;;;6.75;6.50;;;;;10.53;60.46;103299.38;5081460;28;61997;-75
2022/01/21 00:37:46;;;;;;;;;3.50;2.00;;;;;10.46;60.07;103291.75;5083692;27;61917;-75
2022/01/21 00:40:16;;;;;;;;;9.25;6.00;;;;;10.39;60.37;103292.00;5082311;28;61756;-75
2022/01/21 00:45:13;;;;;;;;;8.50;6.00;;;;;10.36;60.88;103295.28;5083168;28;61947;-75
2022/01/21 00:47:38;;;;;;;;;12.25;5.25;;;;;10.33;60.62;103289.78;5083714;28;61895;-76
2022/01/21 00:50:05;;;;;;;;;7.00;5.75;;;;;10.33;60.72;103284.53;5082096;27;63115;-75
2022/01/21 00:52:30;;;;;;;;;8.25;5.75;;;;;10.30;60.64;103275.47;5083336;28;61869;-75
2022/01/21 00:54:56;;;;;;;;;8.00;5.50;;;;;10.23;61.14;103281.88;5083009;28;61810;-76
2022/01/21 00:57:21;;;;;;;;;13.50;6.50;;;;;10.26;61.21;103279.50;5081548;28;62228;-75
2022/01/21 00:59:47;;;;;;;;;9.25;5.25;;;;;10.31;60.93;103277.34;5097983;27;64899;-75
2022/01/21 01:02:13;;;;;;;;;5.25;5.25;;;;;10.37;60.87;103286.66;5082994;28;61760;-76
2022/01/21 01:04:38;;;;;;;;;7.00;5.00;;;;;10.34;60.57;103283.75;5082478;28;61908;-75
2022/01/21 01:07:04;;;;;;;;;5.00;5.00;;;;;10.32;61.03;103295.81;5081930;28;61898;-75
2022/01/21 01:09:30;;;;;;;;;5.75;5.75;;;;;10.24;60.80;103292.53;5097513;27;63357;-75
2022/01/21 01:12:16;;;;;;;;;5.00;4.00;;;;;10.28;61.15;103290.13;5083342;28;61999;-75
2022/01/21 01:20:09;;;;;;;;;7.75;6.00;;;;;10.32;61.02;103279.16;5082198;28;61872;-75
2022/01/21 01:22:48;;;;;;;;;9.75;7.00;;;;;10.31;61.07;103283.50;5082559;28;61867;-75
2022/01/21 01:27:59;;;;;;;;;8.25;6.00;;;;;10.13;61.25;103274.94;5082991;28;62244;-76
2022/01/21 01:30:27;;;;;;;;;7.25;5.00;;;;;10.15;61.17;103277.66;5082118;27;61935;-75
2022/01/21 01:32:58;;;;;;;;;5.50;4.00;;;;;10.06;61.75;103288.28;5082289;28;61791;-75
2022/01/21 01:35:26;;;;;;;;;11.50;9.00;;;;;10.00;61.91;103286.06;5082454;27;61823;-75
2022/01/21 01:51:12;;;;;;;;;9.75;8.75;;;;;9.74;62.48;103273.28;5018854;28;61818;-75
2022/01/21 01:53:47;;;;;;;;;7.25;5.00;;;;;9.69;61.86;103282.47;5002524;28;62204;-75
2022/01/21 01:56:17;;;;;;;;;13.50;9.25;;;;;9.69;62.66;103286.78;5002290;28;61978;-75
2022/01/21 01:58:43;;;;;;;;;13.25;5.00;;;;;9.71;62.75;103287.84;5019466;28;61845;-75
2022/01/21 02:01:10;;;;;;;;;9.75;8.25;;;;;9.66;62.46;103286.50;5018487;28;61997;-75
2022/01/21 02:03:35;;;;;;;;;18.75;8.50;;;;;9.59;62.23;103288.56;5019002;28;61925;-75
2022/01/21 02:06:01;;;;;;;;;12.00;5.25;;;;;9.59;62.21;103287.66;5019403;28;62189;-75
2022/01/21 02:08:28;;;;;;;;;12.00;6.00;;;;;9.63;62.61;103298.56;5019331;28;62022;-75
2022/01/21 02:10:54;;;;;;;;;6.50;6.00;;;;;9.68;62.64;103298.03;5018570;28;62990;-75
2022/01/21 02:13:26;;;;;;;;;11.00;3.25;;;;;9.68;62.14;103298.03;5019387;28;62009;-75
2022/01/21 02:16:12;;;;;;;;;13.25;5.00;;;;;9.70;62.56;103299.09;5018720;28;61871;-76
2022/01/21 02:21:36;;;;;;;;;12.25;5.50;;;;;9.62;62.85;103295.81;5018790;28;62183;-75
2022/01/21 02:24:06;;;;;;;;;9.50;9.00;;;;;9.58;62.30;103291.09;5018452;28;61854;-75
2022/01/21 02:26:32;;;;;;;;;10.75;5.00;;;;;9.51;62.64;103299.16;5023050;28;61851;-75
2022/01/21 02:29:01;;;;;;;;;9.25;7.00;;;;;9.44;62.45;103302.94;5097691;27;61923;-75
2022/01/21 02:31:26;;;;;;;;;8.00;6.00;;;;;9.44;62.46;103302.94;5080823;27;62085;-75
2022/01/21 02:33:52;;;;;;;;;8.25;6.00;;;;;9.37;62.88;103295.31;5081508;27;61933;-76
2022/01/21 02:36:17;;;;;;;;;6.75;5.50;;;;;9.41;62.59;103300.06;5078484;28;61958;-75
2022/01/21 02:38:43;;;;;;;;;10.75;6.00;;;;;9.36;62.93;103296.09;5080372;28;61990;-75
2022/01/21 02:41:08;;;;;;;;;8.25;5.00;;;;;9.38;63.20;103289.28;5081276;28;61951;-76
2022/01/21 02:43:34;;;;;;;;;8.00;6.00;;;;;9.40;62.92;103303.44;5081635;28;61946;-76
2022/01/21 02:46:04;;;;;;;;;9.00;5.00;;;;;9.44;62.76;103297.72;5081146;28;61827;-75
2022/01/21 02:48:34;;;;;;;;;8.25;6.50;;;;;9.45;63.00;103294.31;5083644;27;61727;-75
2022/01/21 02:51:00;;;;;;;;;9.25;6.50;;;;;9.39;62.79;103294.69;5084944;27;62476;-75
2022/01/21 02:53:37;;;;;;;;;9.25;8.00;;;;;9.39;62.47;103293.75;5083386;28;62116;-75
2022/01/21 02:56:03;;;;;;;;;11.75;6.25;;;;;9.41;62.64;103295.72;5082691;28;62111;-75
2022/01/21 02:58:28;;;;;;;;;8.50;6.00;;;;;9.38;63.04;103299.78;5085345;27;62156;-75
2022/01/21 03:00:54;;;;;;;;;13.00;7.50;;;;;9.36;62.49;103302.28;5083783;28;61786;-75
2022/01/21 03:03:19;;;;;;;;;7.00;5.25;;;;;9.28;62.43;103292.81;5084824;28;62221;-76
2022/01/21 03:05:45;;;;;;;;;13.25;6.00;;;;;9.35;63.16;103300.41;5083044;28;62073;-76
2022/01/21 03:08:10;;;;;;;;;2.00;1.00;;;;;9.36;62.97;103301.34;5084685;28;61995;-76
2022/01/21 03:10:36;;;;;;;;;6.00;5.00;;;;;9.36;62.85;103301.34;5084529;28;62755;-75
2022/01/21 03:13:01;;;;;;;;;10.00;9.25;;;;;9.34;63.12;103302.91;5084605;28;61650;-75
2022/01/21 03:15:27;;;;;;;;;8.75;8.00;;;;;9.36;63.05;103296.09;5082870;28;61939;-75
2022/01/21 03:17:52;;;;;;;;;6.75;5.25;;;;;9.39;62.54;103301.63;5084692;28;61915;-75
2022/01/21 03:20:18;;;;;;;;;8.75;6.00;;;;;9.35;63.02;103302.13;5083802;28;61916;-75
2022/01/21 03:22:43;;;;;;;;;7.00;7.00;;;;;9.33;63.18;103306.31;5084698;28;61717;-75
2022/01/21 03:25:09;;;;;;;;;9.50;8.00;;;;;9.33;63.37;103312.47;5083554;28;62144;-75
2022/01/21 03:27:35;;;;;;;;;7.25;7.25;;;;;9.32;63.20;103302.78;5084472;28;61796;-76
2022/01/21 03:30:03;;;;;;;;;8.25;5.00;;;;;9.31;62.90;103300.00;5082626;28;63723;-75
2022/01/21 03:32:30;;;;;;;;;13.25;8.25;;;;;9.28;63.12;103311.16;5084586;28;61957;-75
2022/01/21 03:34:55;;;;;;;;;9.00;7.25;;;;;9.26;63.76;103311.81;5083762;28;61840;-75
2022/01/21 03:37:21;;;;;;;;;6.00;6.00;;;;;9.19;63.64;103313.84;5084436;28;61735;-75
2022/01/21 03:39:46;;;;;;;;;17.00;8.50;;;;;9.18;63.40;103314.63;5082042;28;64416;-75
2022/01/21 03:42:12;;;;;;;;;8.50;8.00;;;;;9.19;63.45;103315.53;5083871;28;61854;-75
2022/01/21 03:44:38;;;;;;;;;12.00;6.50;;;;;9.20;63.30;103318.31;5084208;28;61873;-75
2022/01/21 03:47:03;;;;;;;;;11.75;8.00;;;;;9.15;63.12;103310.81;5084132;27;61974;-75
2022/01/21 03:49:36;;;;;;;;;9.25;7.00;;;;;9.20;63.67;103322.63;5083585;28;61726;-76
2022/01/21 03:52:02;;;;;;;;;8.00;8.00;;;;;9.20;63.66;103320.00;5084026;28;62016;-76
2022/01/21 03:54:28;;;;;;;;;12.25;7.00;;;;;9.14;63.55;103315.13;5083752;28;61865;-75
2022/01/21 03:56:53;;;;;;;;;9.75;8.00;;;;;9.22;63.64;103310.59;5083496;28;61730;-75
2022/01/21 03:59:18;;;;;;;;;10.50;7.00;;;;;9.28;63.63;103307.63;5080925;28;61867;-75
2022/01/21 04:01:44;;;;;;;;;8.25;6.00;;;;;9.32;63.03;103305.41;5083958;28;61707;-75
2022/01/21 04:04:09;;;;;;;;;9.50;5.50;;;;;9.34;62.89;103300.28;5083393;28;61878;-75
2022/01/21 04:06:35;;;;;;;;;9.00;7.50;;;;;9.31;63.46;103306.16;5099887;27;61731;-75
2022/01/21 04:09:00;;;;;;;;;12.50;8.25;;;;;9.30;63.37;103304.34;5082957;28;61681;-76
2022/01/21 04:11:26;;;;;;;;;9.00;8.00;;;;;9.33;63.17;103309.84;5083319;28;61976;-76
2022/01/21 04:13:53;;;;;;;;;9.50;6.00;;;;;9.37;62.89;103316.31;5099580;27;61828;-75
2022/01/21 04:16:18;;;;;;;;;9.50;7.50;;;;;9.42;63.40;103325.47;5083933;27;62003;-76
2022/01/21 04:18:43;;;;;;;;;15.25;7.75;;;;;9.44;63.23;103328.25;5081880;28;63033;-75
2022/01/21 04:21:09;;;;;;;;;8.25;8.25;;;;;9.46;63.60;103330.22;5083466;28;61837;-76
2022/01/21 04:23:35;;;;;;;;;8.75;8.00;;;;;9.50;63.12;103319.22;5083361;28;61862;-75
2022/01/21 04:26:00;;;;;;;;;6.00;6.00;;;;;9.56;62.99;103334.59;5083071;28;62125;-76
2022/01/21 04:28:26;;;;;;;;;10.75;6.75;;;;;9.61;63.14;103328.97;5082799;28;61886;-75
2022/01/21 04:30:51;;;;;;;;;10.00;5.25;;;;;9.65;63.04;103329.25;5081947;28;61973;-75
2022/01/21 04:33:17;;;;;;;;;13.00;9.25;;;;;9.69;62.63;103328.75;5083389;28;61919;-75
2022/01/21 04:35:42;;;;;;;;;11.75;7.00;;;;;9.68;62.60;103330.44;5083252;28;62109;-75
2022/01/21 04:38:10;;;;;;;;;7.00;5.50;;;;;9.67;62.41;103331.22;5082762;28;61819;-75
2022/01/21 04:40:45;;;;;;;;;15.50;10.75;;;;;9.59;62.36;103322.66;5082708;27;62313;-75
2022/01/21 04:48:58;;;;;;;;;8.00;8.00;;;;;9.63;62.42;103324.78;5039743;28;62184;-75
2022/01/21 04:51:29;;;;;;;;;8.00;5.75;;;;;9.67;62.58;103327.69;5040200;28;61862;-75
2022/01/21 04:53:55;;;;;;;;;17.75;9.00;;;;;9.64;62.29;103323.09;5040231;28;62088;-75
2022/01/21 04:56:21;;;;;;;;;14.00;11.25;;;;;9.60;62.69;103324.53;5039364;28;61984;-75
2022/01/21 04:58:47;;;;;;;;;12.50;9.00;;;;;9.51;62.83;103321.09;5023014;28;63949;-75
2022/01/21 05:01:13;;;;;;;;;10.75;6.50;;;;;9.48;62.88;103327.75;5040103;28;61972;-76
2022/01/21 05:03:40;;;;;;;;;11.00;9.25;;;;;9.41;63.10;103336.75;5039520;28;61947;-76
2022/01/21 05:06:06;;;;;;;;;14.25;9.75;;;;;9.40;63.09;103337.53;5040231;28;62287;-75
2022/01/21 05:11:27;;;;;;;;;16.25;12.50;;;;;9.55;62.98;103344.16;5026237;28;62199;-75
2022/01/21 05:14:13;;;;;;;;;19.50;12.00;;;;;9.59;62.72;103343.63;5040123;28;61943;-76
2022/01/21 05:16:39;;;;;;;;;14.00;12.00;;;;;9.52;62.83;103333.41;5054232;28;62291;-75
2022/01/21 05:19:13;;;;;;;;;14.00;9.00;;;;;9.58;62.71;103340.91;5080794;28;63738;-75
2022/01/21 05:21:38;;;;;;;;;7.50;7.50;;;;;9.57;62.58;103331.19;5081162;27;61923;-76
2022/01/21 05:24:05;;;;;;;;;11.50;4.75;;;;;9.60;62.91;103341.97;5082077;28;61859;-75
2022/01/21 05:26:36;;;;;;;;;12.25;9.00;;;;;9.63;62.93;103337.88;5082313;28;61727;-75
2022/01/21 05:29:06;;;;;;;;;10.75;8.50;;;;;9.71;62.96;103337.69;5097604;27;64329;-75
2022/01/21 05:31:32;;;;;;;;;6.00;3.50;;;;;9.62;62.40;103330.81;5082492;28;62100;-75
2022/01/21 05:33:57;;;;;;;;;10.50;8.00;;;;;9.58;62.44;103341.81;5082890;28;61759;-75
2022/01/21 05:36:23;;;;;;;;;7.50;7.50;;;;;9.56;62.62;103342.47;5082293;28;61869;-75
2022/01/21 05:38:49;;;;;;;;;11.75;4.75;;;;;9.51;62.83;103338.50;5081157;27;61958;-75
2022/01/21 05:41:14;;;;;;;;;8.75;4.75;;;;;9.57;63.07;103342.59;5082500;28;61739;-75
2022/01/21 05:43:45;;;;;;;;;5.00;5.00;;;;;9.54;62.74;103334.47;5082313;28;62471;-76
2022/01/21 05:48:56;;;;;;;;;5.75;5.50;;;;;9.71;62.94;103349.06;5081863;28;61792;-75
2022/01/21 05:51:22;;;;;;;;;9.50;4.00;;;;;9.72;62.52;103358.78;5082463;28;61815;-75
2022/01/21 05:53:47;;;;;;;;;5.00;5.00;;;;;9.68;62.53;103356.66;5081883;27;62053;-75
2022/01/21 05:56:13;;;;;;;;;8.75;5.00;;;;;9.71;62.08;103350.78;5080449;28;62100;-75
2022/01/21 05:58:39;;;;;;;;;10.00;6.00;;;;;9.63;62.54;103358.88;5081651;27;61923;-76
2022/01/21 06:01:04;;;;;;;;;7.00;5.75;;;;;9.57;62.62;103352.16;5082166;28;61732;-74
2022/01/21 06:03:33;;;;;;;;;13.00;8.00;;;;;9.56;62.47;103366.97;5082224;28;61910;-76
2022/01/21 06:05:59;;;;;;;;;14.00;7.50;;;;;9.51;62.98;103355.16;5082368;28;61859;-74
2022/01/21 06:08:24;;;;;;;;;9.00;4.00;;;;;9.51;62.82;103364.72;5080790;28;61722;-75
2022/01/21 06:10:50;;;;;;;;;10.00;5.00;;;;;9.46;62.77;103366.00;5080258;28;62165;-75
2022/01/21 06:13:17;;;;;;;;;6.75;4.50;;;;;9.37;63.27;103358.25;5082319;28;61882;-76
2022/01/21 06:15:44;;;;;;;;;6.00;5.00;;;;;9.38;63.01;103361.00;5082044;28;61745;-74
2022/01/21 06:18:10;;;;;;;;;11.00;10.00;;;;;9.32;63.26;103368.31;5080090;28;61860;-78
2022/01/21 06:20:35;;;;;;;;;7.25;5.25;;;;;9.26;63.17;103365.13;5081979;28;61697;-76
2022/01/21 06:23:01;;;;;;;;;23.00;21.50;;;;;9.32;63.62;103376.19;5082388;28;61949;-78
2022/01/21 06:25:26;;;;;;;;;13.25;9.75;;;;;9.50;63.02;103374.28;5100419;27;61981;-73
2022/01/21 06:27:52;;;;;;;;;15.00;9.00;;;;;9.39;63.05;103368.06;5084612;28;61730;-73
2022/01/21 06:30:17;;;;;;;;;8.25;5.25;;;;;9.46;63.02;103377.41;5085398;28;61780;-74
2022/01/21 06:32:43;;;;;;;;;12.50;9.75;;;;;9.49;62.65;103379.38;5085192;28;61860;-73
2022/01/21 06:35:10;;;;;;;;;10.50;4.25;;;;;9.52;63.05;103370.09;5083604;28;62097;-75
2022/01/21 06:37:36;;;;;;;;;9.25;6.00;;;;;9.53;63.12;103369.34;5097606;27;63519;-76
2022/01/21 06:40:02;;;;;;;;;9.00;8.00;;;;;9.58;62.67;103367.13;5099865;27;61862;-76
2022/01/21 06:42:30;;;;;;;;;9.75;6.50;;;;;9.60;62.46;103371.72;5085349;28;61746;-75
2022/01/21 06:44:55;;;;;;;;;10.00;4.50;;;;;9.66;62.80;103383.53;5071171;27;61989;-75
2022/01/21 06:47:21;;;;;;;;;8.00;4.75;;;;;9.69;62.36;103381.19;5064244;28;62858;-76
2022/01/21 06:49:47;;;;;;;;;4.00;4.00;;;;;9.67;62.28;103385.38;5062926;28;62015;-76
2022/01/21 06:52:13;;;;;;;;;11.25;6.00;;;;;9.74;62.76;103390.38;5064277;28;61971;-79
2022/01/21 06:54:39;;;;;;;;;7.00;6.00;;;;;9.74;62.39;103387.78;5064614;28;62085;-78
2022/01/21 06:57:04;;;;;;;;;8.50;5.75;;;;;9.77;62.26;103394.22;5063140;28;61808;-77
2022/01/21 06:59:30;;;;;;;;;7.50;4.75;;;;;9.76;62.63;103383.59;5064576;28;61898;-79
2022/01/21 07:01:55;;;;;;;;;4.00;4.00;;;;;9.90;62.05;103377.88;5083101;28;61964;-79
2022/01/21 07:04:27;;;;;;;;;6.50;4.75;;;;;9.76;62.49;103394.97;5084553;27;61904;-80
2022/01/21 07:06:57;;;;;;;;;8.75;5.50;;;;;9.81;62.53;103401.59;5083647;28;61919;-79
2022/01/21 07:09:31;;;;;;;;;18.00;10.25;;;;;9.85;62.56;103396.59;5083052;28;62137;-77
2022/01/21 07:11:56;;;;;;;;;11.25;5.25;;;;;9.89;62.71;103390.84;5084778;27;61802;-77
2022/01/21 07:14:22;;;;;;;;;10.00;8.25;;;;;9.92;62.96;103393.72;5084823;27;61981;-78
2022/01/21 07:16:48;;;;;;;;;11.25;8.00;;;;;10.10;62.16;103400.63;5084017;27;62006;-78
2022/01/21 07:19:13;;;;;;;;;11.00;5.50;;;;;9.93;62.27;103400.84;5082197;28;62457;-77
2022/01/21 07:21:40;;;;;;;;;25.00;21.25;;;;;9.95;62.72;103404.50;5082099;28;61911;-79
2022/01/21 07:24:06;;;;;;;;;28.00;21.50;;;;;9.93;62.88;103413.94;5099209;27;61963;-76
2022/01/21 07:26:32;;;;;;;;;17.75;15.50;;;;;9.91;62.84;103411.19;5082600;28;62197;-77
2022/01/21 07:28:59;;;;;;;;;14.00;10.25;;;;;9.93;62.55;103417.47;5083268;27;61750;-76
2022/01/21 07:31:26;;;;;;;;;9.50;6.25;;;;;9.85;62.50;103412.34;5099267;27;62033;-77
2022/01/21 07:33:55;;;;;;;;;12.25;6.00;;;;;9.82;62.11;103419.16;5099439;27;61854;-75
2022/01/21 07:36:23;;;;;;;;;13.25;8.00;;;;;9.73;62.32;103420.03;5081315;27;61759;-76
2022/01/21 07:38:48;;;;;;;;;10.50;7.25;;;;;9.65;62.28;103424.56;5082654;28;61979;-77
2022/01/21 07:41:14;;;;;;;;;9.00;7.00;;;;;9.65;62.55;103432.44;5098147;27;62066;-78
2022/01/21 07:43:39;;;;;;;;;20.25;9.00;;;;;9.65;62.37;103429.81;5083474;28;61953;-83
2022/01/21 07:46:05;;;;;;;;;9.75;8.50;;;;;9.61;62.34;103439.09;5083310;28;62029;-85
2022/01/21 07:48:31;;;;;;;;;15.25;10.00;;;;;9.60;62.74;103433.75;5099385;27;61954;-83
2022/01/21 07:50:57;;;;;;;;;13.00;8.00;;;;;9.61;62.43;103428.63;5082408;28;61927;-79
2022/01/21 07:53:22;;;;;;;;;12.50;8.75;;;;;9.66;62.63;103438.59;5097853;27;62031;-79
2022/01/21 07:55:50;;;;;;;;;9.25;9.00;;;;;9.68;62.66;103444.91;5081151;28;62127;-79
2022/01/21 07:58:17;;;;;;;;;12.75;8.75;;;;;9.58;62.54;103444.09;5097950;27;62080;-78
2022/01/21 08:00:43;;;;;;;;;11.00;8.25;;;;;9.55;62.70;103455.97;5082194;28;62069;-81
2022/01/21 08:03:08;;;;;;;;;14.00;8.75;;;;;9.57;62.94;103451.81;5081360;28;61798;-80
2022/01/21 08:05:34;;;;;;;;;11.50;7.25;;;;;9.56;62.53;103458.75;5098054;27;64134;-80
2022/01/21 08:08:01;;;;;;;;;11.25;9.50;;;;;9.55;62.59;103458.59;5081727;28;62025;-79
2022/01/21 08:10:27;;;;;;;;;5.00;1.00;;;;;9.70;63.20;103457.38;5082542;27;62024;-79
2022/01/21 08:12:52;;;;;;;;;9.75;9.75;;;;;9.72;63.31;103452.28;5081590;28;61812;-79
2022/01/21 08:15:18;;;;;;;;;12.75;7.50;;;;;9.81;62.78;103455.72;5080718;28;62903;-79
2022/01/21 08:17:44;;;;;;;;;13.25;9.25;;;;;9.80;62.33;103460.06;5088553;27;62198;-79
2022/01/21 08:20:10;;;;;;;;;12.00;10.00;;;;;9.76;62.50;103465.81;5097356;27;61845;-80
2022/01/21 08:22:35;;;;;;;;;21.00;13.25;;;;;9.74;62.69;103459.50;5086650;27;61956;-78
2022/01/21 08:25:01;;;;;;;;;14.75;13.00;;;;;9.86;62.54;103470.19;5079870;28;62262;-80
2022/01/21 08:27:27;;;;;;;;;16.75;13.75;;;;;9.90;62.58;103461.81;5079515;28;61894;-80
2022/01/21 08:29:52;;;;;;;;;12.75;10.25;;;;;9.93;62.55;103464.72;5079852;28;62009;-79
2022/01/21 08:32:20;;;;;;;;;21.25;15.25;;;;;10.03;62.66;103458.59;5080696;27;62239;-80
2022/01/21 08:34:47;;;;;;;;;16.50;14.00;;;;;10.10;62.16;103458.34;5101116;27;62090;-80
2022/01/21 08:37:13;;;;;;;;;19.75;12.75;;;;;10.18;62.36;103451.19;5081633;28;61945;-80
2022/01/21 08:39:38;;;;;;;;;21.75;16.50;;;;;10.44;62.57;103458.75;5097547;27;62416;-80
2022/01/21 08:42:06;;;;;;;;;17.75;13.00;;;;;10.33;61.66;103465.69;5082157;27;62097;-80
2022/01/21 08:44:32;;;;;;;;;17.50;13.75;;;;;10.38;62.09;103460.84;5079597;28;61942;-80
2022/01/21 08:46:57;;;;;;;;;17.00;13.25;;;;;10.38;61.33;103468.72;5080766;27;61850;-80
2022/01/21 08:49:23;;;;;;;;;18.25;18.25;;;;;10.36;61.68;103471.19;5078882;28;61974;-80
2022/01/21 08:51:54;;;;;;;;;19.50;17.50;;;;;10.21;61.45;103467.19;5079369;28;63242;-80
2022/01/21 08:54:21;;;;;;;;;20.00;12.50;;;;;10.20;61.96;103468.91;5074192;27;65027;-80
2022/01/21 08:56:52;;;;;;;;;21.25;16.25;;;;;10.41;62.27;103471.59;5079124;27;61880;-80
2022/01/21 08:59:18;;;;;;;;;23.00;17.00;;;;;10.46;61.23;103474.66;5077432;28;62484;-80
2022/01/21 09:01:45;;;;;;;;;40.50;33.25;;;;;10.57;61.54;103466.00;5079084;28;62300;-80
2022/01/21 09:04:11;;;;;;;;;15.75;14.25;;;;;10.51;61.35;103478.59;5078235;28;62228;-80
2022/01/21 09:06:37;;;;;;;;;21.25;14.00;;;;;10.53;61.41;103483.19;5080770;28;62090;-79
2022/01/21 09:09:04;;;;;;;;;24.50;17.25;;;;;10.53;61.19;103477.94;5080550;27;63165;-80
2022/01/21 09:11:30;;;;;;;;;24.00;18.50;;;;;10.45;61.09;103476.34;5080745;27;61879;-79
2022/01/21 09:13:57;;;;;;;;;22.25;13.00;;;;;10.37;61.79;103480.03;5079168;27;61774;-80
2022/01/21 09:16:23;;;;;;;;;29.25;22.00;;;;;10.49;61.41;103481.09;5080915;28;61925;-80
2022/01/21 09:18:51;;;;;;;;;24.50;18.25;;;;;10.56;61.35;103479.91;5081472;27;61858;-80
2022/01/21 09:21:19;;;;;;;;;30.25;25.00;;;;;10.53;61.34;103491.06;5096740;27;61967;-80
2022/01/21 09:23:49;;;;;;;;;22.25;17.00;;;;;10.50;61.51;103476.78;5078284;28;63400;-80
2022/01/21 09:26:16;;;;;;;;;15.50;11.75;;;;;10.58;61.08;103488.84;5080473;27;61802;-80
2022/01/21 09:28:43;;;;;;;;;13.75;12.00;;;;;10.55;61.59;103481.63;5079726;28;62080;-79
2022/01/21 09:31:08;;;;;;;;;20.50;18.00;;;;;10.57;61.88;103477.44;5079025;28;62135;-80
2022/01/21 09:33:34;;;;;;;;;28.75;18.75;;;;;10.69;61.36;103495.03;5078850;28;63577;-80
2022/01/21 09:35:59;;;;;;;;;19.75;16.50;;;;;10.76;61.56;103503.59;5083657;27;62060;-81
2022/01/21 09:38:26;;;;;;;;;21.75;15.50;;;;;10.68;61.28;103512.50;5081352;27;62068;-80
2022/01/21 09:40:53;;;;;;;;;17.50;15.75;;;;;10.72;61.54;103518.97;5081013;27;62614;-79
2022/01/21 09:43:21;;;;;;;;;18.25;13.00;;;;;10.69;61.37;103519.63;5080032;27;61869;-80
2022/01/21 09:45:51;;;;;;;;;24.50;17.25;;;;;10.72;61.98;103525.13;5079454;28;61809;-80
2022/01/21 09:48:29;;;;;;;;;19.50;17.00;;;;;10.70;61.70;103521.44;5096279;27;61899;-80
2022/01/21 09:50:57;;;;;;;;;15.25;14.75;;;;;10.68;61.72;103533.53;5079859;28;62306;-80
2022/01/21 09:53:31;;;;;;;;;18.50;14.75;;;;;10.77;61.84;103529.06;5077071;28;62785;-80
2022/01/21 09:55:59;;;;;;;;;42.50;32.50;;;;;10.76;61.48;103523.72;5079059;27;61905;-80
2022/01/21 09:58:29;;;;;;;;;29.50;26.50;;;;;10.87;61.65;103529.91;5081806;27;61741;-80
2022/01/21 10:00:57;;;;;;;;;20.75;19.25;;;;;10.83;61.74;103531.34;5099154;27;62129;-80
2022/01/21 10:03:24;;;;;;;;;19.50;16.50;;;;;10.90;61.71;103535.41;5082452;28;62215;-80
2022/01/21 10:05:52;;;;;;;;;28.25;18.25;;;;;10.95;61.48;103542.00;5078842;27;61944;-80
2022/01/21 10:08:21;;;;;;;;;18.25;15.00;;;;;11.00;61.32;103544.22;5082847;28;61749;-80
2022/01/21 10:10:46;;;;;;;;;45.00;30.50;;;;;10.92;61.50;103537.38;5097705;27;62153;-80
2022/01/21 10:13:18;;;;;;;;;21.50;18.00;;;;;10.95;61.09;103536.75;5082837;28;61854;-80
2022/01/21 10:15:44;;;;;;;;;25.75;21.75;;;;;10.91;61.74;103543.44;5098798;27;61761;-80
2022/01/21 10:18:19;;;;;;;;;21.25;18.50;;;;;11.00;61.34;103541.59;5082384;28;61894;-80
2022/01/21 10:21:05;;;;;;;;;22.75;19.50;;;;;11.05;61.46;103542.00;5079699;28;62206;-80
2022/01/21 10:23:34;;;;;;;;;23.00;19.00;;;;;11.12;61.36;103530.31;5077651;28;64103;-80
2022/01/21 10:26:06;;;;;;;;;21.00;19.00;;;;;11.22;61.50;103533.84;5077410;28;61846;-80
2022/01/21 10:28:32;;;;;;;;;15.75;11.50;;;;;11.29;61.23;103537.00;5082477;27;61899;-80
2022/01/21 10:31:09;;;;;;;;;28.50;26.75;;;;;11.39;61.37;103537.03;5081310;28;61833;-80
2022/01/21 10:33:41;;;;;;;;;27.50;19.50;;;;;11.58;61.40;103547.41;5080654;28;61990;-80
2022/01/21 10:36:23;;;;;;;;;35.75;23.00;;;;;11.66;60.37;103542.00;5079798;28;62038;-80
2022/01/21 10:38:51;;;;;;;;;35.00;21.25;;;;;11.63;60.21;103539.13;5080240;28;61929;-80
2022/01/21 10:41:19;;;;;;;;;25.00;21.00;;;;;11.57;60.33;103530.72;5081486;27;61993;-80
2022/01/21 10:44:01;;;;;;;;;28.75;24.75;;;;;11.64;60.48;103540.94;5096956;27;63612;-80
2022/01/21 10:46:27;;;;;;;;;32.75;24.75;;;;;11.69;59.99;103527.25;5089832;27;61942;-80
2022/01/21 10:49:02;;;;;;;;;20.50;17.50;;;;;11.68;59.73;103535.97;5082477;27;61839;-80
2022/01/21 10:51:31;;;;;;;;;31.50;22.00;;;;;11.68;60.04;103534.25;5082975;27;61906;-80
2022/01/21 10:54:10;;;;;;;;;30.00;20.00;;;;;11.71;60.01;103541.47;5082006;27;61919;-80
2022/01/21 10:56:35;;;;;;;;;35.00;27.75;;;;;11.61;60.06;103529.22;5082063;27;62376;-80
2022/01/21 10:59:01;;;;;;;;;15.25;13.00;;;;;11.64;60.30;103524.25;5081938;28;62468;-80
2022/01/21 11:01:29;;;;;;;;;31.75;28.00;;;;;11.71;60.15;103518.69;5098175;27;61911;-80
2022/01/21 11:04:05;;;;;;;;;29.75;26.25;;;;;11.76;60.30;103524.34;5080006;28;63538;-80
2022/01/21 11:06:47;;;;;;;;;21.50;20.50;;;;;11.60;60.36;103519.50;5061034;28;61933;-80
2022/01/21 11:09:17;;;;;;;;;33.00;22.00;;;;;11.74;60.55;103531.19;5094498;27;62254;-80
2022/01/21 11:11:48;;;;;;;;;32.00;25.00;;;;;11.82;60.25;103516.97;5061329;28;61773;-80
2022/01/21 11:14:19;;;;;;;;;27.00;19.25;;;;;12.00;59.99;103515.00;5060663;28;63258;-80
2022/01/21 11:16:47;;;;;;;;;16.00;14.25;;;;;12.18;60.15;103516.47;5061338;28;62101;-80
2022/01/21 11:19:23;;;;;;;;;16.00;13.50;;;;;12.22;59.27;103515.94;5081262;28;61898;-80
2022/01/21 11:21:56;;;;;;;;;23.25;16.00;;;;;12.30;59.35;103519.22;5099254;27;62148;-80
2022/01/21 11:24:24;;;;;;;;;22.25;19.25;;;;;12.25;58.93;103516.22;5077383;27;64034;-80
2022/01/21 11:27:13;;;;;;;;;30.00;19.50;;;;;12.21;59.00;103523.69;5097052;27;61959;-80
2022/01/21 11:29:41;;;;;;;;;30.50;19.75;;;;;12.16;58.92;103520.69;5096565;27;61979;-80
2022/01/21 11:32:07;;;;;;;;;11.25;10.00;;;;;12.34;59.48;103521.31;5089595;27;62171;-80
2022/01/21 11:34:33;;;;;;;;;15.00;15.00;;;;;12.53;59.08;103512.22;5081831;27;61973;-80
2022/01/21 11:37:00;;;;;;;;;17.00;15.00;;;;;12.67;58.62;103506.34;5079975;28;62002;-81
2022/01/21 11:39:27;;;;;;;;;17.50;13.50;;;;;12.78;58.42;103510.75;5082183;27;61721;-83
2022/01/21 11:41:56;;;;;;;;;24.25;15.00;;;;;12.78;58.13;103500.22;5082643;27;61757;-82
2022/01/21 11:44:25;;;;;;;;;14.50;12.00;;;;;12.74;58.31;103516.56;5082140;27;63013;-80
2022/01/21 11:49:36;;;;;;;;;15.75;12.25;;;;;12.62;58.50;103502.44;5082218;28;62046;-78
2022/01/21 11:52:16;;;;;;;;;16.75;12.75;;;;;12.74;58.05;103495.50;5081370;28;62333;-80
2022/01/21 11:54:42;;;;;;;;;10.50;10.50;;;;;12.77;58.31;103493.13;5081987;27;63090;-78
2022/01/21 11:57:10;;;;;;;;;16.75;14.75;;;;;12.93;58.36;103502.22;5097778;27;62347;-79
2022/01/21 11:59:42;;;;;;;;;15.50;14.00;;;;;13.11;58.47;103501.03;5083305;27;62169;-78
2022/01/21 12:02:26;;;;;;;;;10.00;10.00;;;;;13.16;57.99;103502.31;5081623;28;61954;-78
2022/01/21 12:04:55;;;;;;;;;15.75;13.00;;;;;13.12;57.61;103507.22;5081758;27;62697;-78
2022/01/21 12:07:33;;;;;;;;;15.00;12.75;;;;;13.24;57.64;103495.00;5082384;28;61950;-79
2022/01/21 12:10:05;;;;;;;;;16.75;12.00;;;;;13.38;57.63;103493.44;5082462;28;61696;-80
2022/01/21 12:12:48;;;;;;;;;12.25;10.00;;;;;13.46;56.72;103501.13;5082347;28;62006;-80